Time;durP1;ratioP1;P1;durP2;ratioP2;P2;SDS_P1;SDS_P2;PMS_P1;PMS_P2;Temp;Humidity;BMP_temperature;BMP_pressure;BME280_temperature;BME280_humidity;BME280_pressure;Samples;Min_cycle;Max_cycle;Signal;HPM_P1;HPM_P2
2020/12/22 00:00:43;;;;;;;0.95;0.55;;;18.20;59.70;;;;;;5063646;28;20178;-61
2020/12/22 00:03:08;;;;;;;0.65;0.65;;;18.20;59.70;;;;;;5063934;28;20170;-62
2020/12/22 00:05:34;;;;;;;0.47;0.47;;;18.20;59.80;;;;;;5063959;28;20244;-61
2020/12/22 00:08:00;;;;;;;2.15;0.70;;;18.20;59.80;;;;;;5064136;28;20178;-62
2020/12/22 00:10:25;;;;;;;1.48;0.60;;;18.10;59.90;;;;;;5064086;28;20175;-62
2020/12/22 00:12:51;;;;;;;0.50;0.50;;;18.10;59.90;;;;;;5064173;28;20183;-62
2020/12/22 00:15:16;;;;;;;0.60;0.60;;;18.10;59.90;;;;;;5063842;28;20178;-62
2020/12/22 00:17:43;;;;;;;1.38;0.60;;;18.10;59.90;;;;;;5063818;28;20175;-62
2020/12/22 00:20:09;;;;;;;0.50;0.50;;;18.10;59.90;;;;;;5064246;28;20539;-62
2020/12/22 00:22:34;;;;;;;0.60;0.50;;;18.10;59.90;;;;;;5063985;28;20170;-62
2020/12/22 00:25:00;;;;;;;0.95;0.68;;;18.10;59.90;;;;;;5063803;28;20565;-62
2020/12/22 00:27:26;;;;;;;0.93;0.60;;;18.10;59.90;;;;;;5063775;28;20198;-61
2020/12/22 00:29:51;;;;;;;0.63;0.60;;;18.00;60.00;;;;;;5063982;28;20229;-61
2020/12/22 00:32:17;;;;;;;1.65;0.60;;;18.10;60.00;;;;;;5064176;28;20175;-61
2020/12/22 00:34:42;;;;;;;0.50;0.50;;;18.10;60.00;;;;;;5064455;28;20186;-61
2020/12/22 00:37:08;;;;;;;0.50;0.50;;;18.00;60.00;;;;;;5064171;28;20659;-62
2020/12/22 00:39:33;;;;;;;0.70;0.60;;;18.00;60.00;;;;;;5068053;28;20170;-61
2020/12/22 00:41:59;;;;;;;0.50;0.50;;;18.00;60.10;;;;;;5067920;28;20183;-62
2020/12/22 00:44:25;;;;;;;0.52;0.52;;;18.00;60.00;;;;;;5067999;28;20297;-62
2020/12/22 00:46:53;;;;;;;0.75;0.60;;;18.00;60.00;;;;;;5049611;28;20171;-62
2020/12/22 00:49:19;;;;;;;2.05;0.65;;;18.00;60.00;;;;;;5050307;28;20613;-63
2020/12/22 00:51:45;;;;;;;1.35;0.50;;;18.00;60.00;;;;;;5067795;28;20166;-62
2020/12/22 00:54:10;;;;;;;0.55;0.55;;;18.00;60.10;;;;;;5067666;28;20190;-62
2020/12/22 00:56:36;;;;;;;0.65;0.60;;;18.00;60.10;;;;;;5067518;28;20225;-62
2020/12/22 00:59:01;;;;;;;0.68;0.68;;;18.00;60.10;;;;;;5067525;28;20685;-61
2020/12/22 01:01:30;;;;;;;0.60;0.60;;;18.00;60.10;;;;;;5067593;28;20181;-62
2020/12/22 01:03:57;;;;;;;0.43;0.43;;;17.90;60.10;;;;;;5067577;28;20209;-61
2020/12/22 01:06:22;;;;;;;0.50;0.50;;;17.90;60.20;;;;;;5067343;28;20166;-61
2020/12/22 01:08:48;;;;;;;0.60;0.60;;;17.90;60.10;;;;;;5049447;28;20538;-61
2020/12/22 01:11:13;;;;;;;0.40;0.40;;;17.90;60.10;;;;;;5067136;28;20190;-61
2020/12/22 01:13:39;;;;;;;0.70;0.50;;;17.90;60.10;;;;;;5067367;28;20188;-62
2020/12/22 01:16:04;;;;;;;0.50;0.50;;;17.90;60.10;;;;;;5067393;28;20170;-61
2020/12/22 01:18:30;;;;;;;0.70;0.60;;;17.90;60.20;;;;;;5067042;28;20200;-62
2020/12/22 01:20:55;;;;;;;0.65;0.65;;;17.90;60.20;;;;;;5066958;28;20244;-62
2020/12/22 01:23:21;;;;;;;0.50;0.50;;;17.90;60.20;;;;;;5066941;28;20206;-62
2020/12/22 01:25:46;;;;;;;0.47;0.47;;;17.90;60.20;;;;;;5066732;28;20248;-61
2020/12/22 01:28:12;;;;;;;1.63;0.47;;;17.90;60.30;;;;;;5066783;28;20210;-60
2020/12/22 01:30:38;;;;;;;1.27;0.50;;;17.80;60.20;;;;;;5066680;28;20173;-60
2020/12/22 01:33:04;;;;;;;0.63;0.63;;;17.90;60.30;;;;;;5066749;28;20277;-61
2020/12/22 01:35:30;;;;;;;0.50;0.50;;;17.80;60.20;;;;;;5066680;28;20289;-62
2020/12/22 01:37:56;;;;;;;0.40;0.40;;;17.90;60.30;;;;;;5066667;28;20224;-61
2020/12/22 01:40:21;;;;;;;0.40;0.40;;;17.80;60.20;;;;;;5066692;28;20636;-61
2020/12/22 01:42:47;;;;;;;0.47;0.47;;;17.80;60.30;;;;;;5066616;28;20182;-61
2020/12/22 01:45:13;;;;;;;1.08;0.40;;;17.80;60.30;;;;;;5066453;28;20665;-61
2020/12/22 01:47:48;;;;;;;0.82;0.50;;;17.90;60.40;;;;;;5066429;28;20255;-62
2020/12/22 01:50:14;;;;;;;0.40;0.40;;;17.80;60.30;;;;;;5048920;28;20327;-61
2020/12/22 01:52:40;;;;;;;0.50;0.50;;;17.80;60.30;;;;;;5066648;28;20170;-61
2020/12/22 01:55:06;;;;;;;0.70;0.50;;;17.80;60.30;;;;;;5066217;28;20962;-62
2020/12/22 01:57:31;;;;;;;0.40;0.40;;;17.80;60.30;;;;;;5066104;28;21079;-61
2020/12/22 01:59:57;;;;;;;0.40;0.40;;;17.80;60.40;;;;;;5066274;28;20197;-60
2020/12/22 02:02:23;;;;;;;0.40;0.40;;;17.80;60.40;;;;;;5066416;28;20178;-60
2020/12/22 02:04:49;;;;;;;0.40;0.40;;;17.80;60.40;;;;;;5031898;28;20398;-61
2020/12/22 02:07:14;;;;;;;0.30;0.30;;;17.70;60.40;;;;;;5048170;28;20608;-61
2020/12/22 02:09:40;;;;;;;0.47;0.40;;;17.80;60.40;;;;;;5031629;28;20197;-60
2020/12/22 02:12:05;;;;;;;0.30;0.30;;;17.80;60.50;;;;;;5065641;28;20319;-61
2020/12/22 02:14:31;;;;;;;0.40;0.40;;;17.80;60.50;;;;;;5066154;28;20204;-61
2020/12/22 02:16:56;;;;;;;0.60;0.60;;;17.70;60.50;;;;;;5066012;28;21050;-62
2020/12/22 02:19:22;;;;;;;0.57;0.30;;;17.70;60.50;;;;;;5066165;28;20399;-61
2020/12/22 02:21:48;;;;;;;0.35;0.35;;;17.70;60.60;;;;;;5065744;28;20459;-61
2020/12/22 02:24:13;;;;;;;0.40;0.40;;;17.70;60.60;;;;;;5065573;28;20653;-61
2020/12/22 02:26:39;;;;;;;0.30;0.30;;;17.70;60.60;;;;;;5065721;28;20232;-61
2020/12/22 02:29:04;;;;;;;0.50;0.50;;;17.70;60.50;;;;;;5065500;28;20249;-59
2020/12/22 02:31:30;;;;;;;0.35;0.35;;;17.70;60.50;;;;;;5065916;28;20198;-60
2020/12/22 02:33:56;;;;;;;0.40;0.40;;;17.70;60.60;;;;;;5065452;28;20240;-60
2020/12/22 02:36:21;;;;;;;0.38;0.38;;;17.70;60.60;;;;;;5065659;28;20174;-60
2020/12/22 02:38:47;;;;;;;0.40;0.20;;;17.70;60.60;;;;;;5065387;28;20585;-62
2020/12/22 02:41:12;;;;;;;0.30;0.30;;;17.70;61.00;;;;;;5065529;28;20540;-60
2020/12/22 02:43:38;;;;;;;0.40;0.40;;;17.70;60.60;;;;;;5065276;28;20175;-61
2020/12/22 02:46:04;;;;;;;0.25;0.25;;;17.70;60.70;;;;;;5065084;28;20202;-61
2020/12/22 02:48:29;;;;;;;0.40;0.30;;;17.70;60.60;;;;;;5065216;28;20181;-62
2020/12/22 02:50:55;;;;;;;1.17;0.40;;;17.70;61.60;;;;;;5065038;28;20175;-61
2020/12/22 02:53:21;;;;;;;0.40;0.40;;;17.70;60.70;;;;;;5065353;28;20185;-62
2020/12/22 02:55:46;;;;;;;0.98;0.30;;;17.70;60.80;;;;;;5065341;28;20183;-60
2020/12/22 02:58:12;;;;;;;0.40;0.40;;;17.60;60.70;;;;;;5065390;28;20170;-61
2020/12/22 03:00:38;;;;;;;0.30;0.30;;;17.70;60.80;;;;;;5064328;28;20646;-61
2020/12/22 03:03:04;;;;;;;0.40;0.40;;;17.70;60.90;;;;;;5065156;28;20170;-61
2020/12/22 03:05:29;;;;;;;0.30;0.30;;;17.60;60.80;;;;;;5065021;28;20214;-61
2020/12/22 03:07:55;;;;;;;0.55;0.40;;;17.60;60.80;;;;;;5064955;28;20178;-62
2020/12/22 03:10:20;;;;;;;0.38;0.38;;;17.60;60.90;;;;;;5065016;28;20176;-61
2020/12/22 03:12:46;;;;;;;0.30;0.30;;;17.60;61.00;;;;;;5064963;28;20182;-61
2020/12/22 03:15:12;;;;;;;0.30;0.30;;;17.60;60.90;;;;;;5064784;28;20174;-61
2020/12/22 03:17:38;;;;;;;1.27;0.40;;;17.60;60.90;;;;;;5064698;28;20262;-62
2020/12/22 03:20:05;;;;;;;0.40;0.40;;;17.60;61.00;;;;;;5064873;28;20779;-61
2020/12/22 03:22:32;;;;;;;0.20;0.20;;;17.60;61.00;;;;;;5047099;28;20170;-61
2020/12/22 03:24:57;;;;;;;0.20;0.20;;;17.60;60.90;;;;;;5064554;28;20644;-62
2020/12/22 03:27:23;;;;;;;0.40;0.40;;;17.60;61.00;;;;;;5064228;28;20197;-62
2020/12/22 03:29:49;;;;;;;0.30;0.30;;;17.60;61.00;;;;;;5063972;28;20628;-60
2020/12/22 03:32:14;;;;;;;0.30;0.30;;;17.60;61.10;;;;;;5064016;28;20178;-60
2020/12/22 03:34:40;;;;;;;0.45;0.30;;;17.60;61.00;;;;;;5063883;28;20175;-61
2020/12/22 03:37:05;;;;;;;0.30;0.30;;;17.60;61.00;;;;;;5063871;28;20993;-59
2020/12/22 03:39:31;;;;;;;0.47;0.43;;;17.60;61.00;;;;;;5063338;28;20170;-62
2020/12/22 03:41:56;;;;;;;0.28;0.28;;;17.60;61.10;;;;;;5063676;28;20186;-61
2020/12/22 03:44:22;;;;;;;0.47;0.43;;;17.60;61.10;;;;;;5063565;28;20213;-62
2020/12/22 03:46:50;;;;;;;0.30;0.30;;;17.60;61.10;;;;;;5063665;28;20175;-62
2020/12/22 03:49:16;;;;;;;0.80;0.52;;;17.60;61.20;;;;;;5063355;28;20178;-62
2020/12/22 03:51:42;;;;;;;0.30;0.30;;;17.50;61.10;;;;;;5063185;28;20223;-62
2020/12/22 03:54:08;;;;;;;0.47;0.47;;;17.50;61.20;;;;;;5063475;28;20178;-61
2020/12/22 03:56:33;;;;;;;0.30;0.30;;;17.60;61.30;;;;;;5063795;28;20193;-62
2020/12/22 03:58:59;;;;;;;0.60;0.30;;;17.60;61.30;;;;;;5063394;28;20175;-61
2020/12/22 04:01:25;;;;;;;0.30;0.30;;;17.50;61.20;;;;;;5063308;28;20684;-61
2020/12/22 04:03:50;;;;;;;0.30;0.30;;;17.50;61.20;;;;;;5063429;28;20206;-61
2020/12/22 04:06:16;;;;;;;0.30;0.30;;;17.50;61.20;;;;;;5063101;28;20523;-61
2020/12/22 04:08:41;;;;;;;0.50;0.50;;;17.50;61.30;;;;;;5063326;28;20239;-60
2020/12/22 04:11:07;;;;;;;0.85;0.40;;;17.50;61.30;;;;;;5062902;28;20365;-61
2020/12/22 04:13:33;;;;;;;0.40;0.20;;;17.50;61.30;;;;;;5063266;28;20182;-61
2020/12/22 04:16:03;;;;;;;0.38;0.38;;;17.50;61.20;;;;;;5063059;28;20174;-62
2020/12/22 04:18:28;;;;;;;0.30;0.30;;;17.50;61.20;;;;;;5063095;28;20166;-61
2020/12/22 04:20:57;;;;;;;0.20;0.20;;;17.50;61.20;;;;;;5062973;28;20179;-62
2020/12/22 04:23:23;;;;;;;0.35;0.35;;;17.50;61.20;;;;;;5063160;28;20166;-61
2020/12/22 04:25:48;;;;;;;0.32;0.32;;;17.50;61.20;;;;;;5062785;28;20934;-61
2020/12/22 04:28:14;;;;;;;0.40;0.40;;;17.50;61.30;;;;;;5042770;28;600027;-60
2020/12/22 04:30:39;;;;;;;0.40;0.40;;;17.50;61.30;;;;;;5045895;28;20179;-61
2020/12/22 04:33:05;;;;;;;0.30;0.30;;;17.50;61.30;;;;;;5063961;28;20178;-62
2020/12/22 04:35:30;;;;;;;0.38;0.38;;;17.50;61.40;;;;;;5063939;28;20174;-61
2020/12/22 04:37:56;;;;;;;0.30;0.30;;;17.50;61.30;;;;;;5063861;28;20742;-62
2020/12/22 04:40:21;;;;;;;0.40;0.40;;;17.50;61.40;;;;;;5063909;28;20595;-63
2020/12/22 04:42:47;;;;;;;0.40;0.40;;;17.50;61.40;;;;;;5063609;28;20182;-62
2020/12/22 04:45:12;;;;;;;0.30;0.30;;;17.50;61.40;;;;;;5029350;28;20329;-61
2020/12/22 04:47:38;;;;;;;0.30;0.30;;;17.50;61.40;;;;;;5045927;28;20529;-62
2020/12/22 04:50:04;;;;;;;0.30;0.30;;;17.40;61.40;;;;;;5029573;28;20538;-61
2020/12/22 04:52:29;;;;;;;0.20;0.20;;;17.50;61.40;;;;;;5063781;28;20190;-61
2020/12/22 04:54:55;;;;;;;0.30;0.30;;;17.40;61.40;;;;;;5045706;28;20179;-62
2020/12/22 04:57:21;;;;;;;0.30;0.30;;;17.40;61.40;;;;;;5029230;28;20709;-61
2020/12/22 04:59:47;;;;;;;0.30;0.30;;;17.40;61.50;;;;;;5029133;28;20309;-60
2020/12/22 05:02:12;;;;;;;0.30;0.30;;;17.40;61.40;;;;;;5029127;28;20269;-60
2020/12/22 05:04:38;;;;;;;0.43;0.40;;;17.40;61.40;;;;;;5045689;28;20560;-61
2020/12/22 05:07:04;;;;;;;0.40;0.40;;;17.40;61.40;;;;;;5063676;28;20538;-60
2020/12/22 05:09:30;;;;;;;0.55;0.40;;;17.40;61.50;;;;;;5063512;28;20584;-61
2020/12/22 05:11:56;;;;;;;0.77;0.40;;;17.40;61.40;;;;;;5064030;28;20175;-61
2020/12/22 05:14:21;;;;;;;0.68;0.30;;;17.40;61.40;;;;;;5063810;28;20175;-61
2020/12/22 05:16:47;;;;;;;0.55;0.30;;;17.40;61.40;;;;;;5063472;28;20178;-61
2020/12/22 05:19:17;;;;;;;0.30;0.30;;;17.40;61.50;;;;;;5063394;28;20162;-61
2020/12/22 05:21:42;;;;;;;0.30;0.30;;;17.40;61.40;;;;;;5063679;28;20171;-62
2020/12/22 05:24:08;;;;;;;0.30;0.30;;;17.40;61.40;;;;;;5031246;28;20343;-61
2020/12/22 05:26:34;;;;;;;0.20;0.20;;;17.40;61.40;;;;;;5064319;28;20225;-59
2020/12/22 05:29:10;;;;;;;0.30;0.30;;;17.40;61.50;;;;;;5065240;28;20768;-60
2020/12/22 05:31:44;;;;;;;0.40;0.40;;;17.40;61.50;;;;;;5067031;28;20174;-60
2020/12/22 05:34:10;;;;;;;0.30;0.28;;;17.30;61.40;;;;;;5066698;28;20181;-59
2020/12/22 05:36:38;;;;;;;0.30;0.30;;;17.40;61.50;;;;;;5066620;28;21009;-60
2020/12/22 05:39:04;;;;;;;0.30;0.30;;;17.40;61.50;;;;;;5048953;28;20170;-62
2020/12/22 05:41:32;;;;;;;0.50;0.50;;;17.40;61.40;;;;;;5066667;28;20579;-63
2020/12/22 05:43:57;;;;;;;0.30;0.30;;;17.40;61.40;;;;;;5032553;28;20210;-61
2020/12/22 05:46:23;;;;;;;0.30;0.30;;;17.30;61.40;;;;;;5066592;28;20185;-62
2020/12/22 05:48:48;;;;;;;0.40;0.40;;;17.40;61.40;;;;;;5032355;28;20289;-61
2020/12/22 05:51:14;;;;;;;0.38;0.38;;;17.40;61.50;;;;;;5066323;28;20206;-61
2020/12/22 05:53:43;;;;;;;0.35;0.30;;;17.30;61.40;;;;;;5048652;28;20175;-60
2020/12/22 05:56:18;;;;;;;0.32;0.32;;;17.30;61.40;;;;;;5048578;28;20987;-61
2020/12/22 05:58:44;;;;;;;0.30;0.30;;;17.30;61.40;;;;;;5066644;28;20236;-61
2020/12/22 06:01:11;;;;;;;0.50;0.40;;;17.30;61.40;;;;;;5066410;28;20206;-61
2020/12/22 06:03:38;;;;;;;0.90;0.40;;;17.30;61.40;;;;;;5066089;28;20186;-61
2020/12/22 06:06:03;;;;;;;0.30;0.30;;;17.30;61.40;;;;;;5066636;28;20175;-61
2020/12/22 06:08:29;;;;;;;0.45;0.45;;;17.30;61.50;;;;;;5066613;28;20269;-61
2020/12/22 06:10:54;;;;;;;0.40;0.35;;;17.30;61.40;;;;;;5048466;28;20530;-61
2020/12/22 06:13:20;;;;;;;0.30;0.30;;;17.30;61.40;;;;;;5048214;28;20178;-61
2020/12/22 06:15:45;;;;;;;0.45;0.30;;;17.30;61.50;;;;;;5031380;28;20175;-61
2020/12/22 06:18:11;;;;;;;0.20;0.20;;;17.30;62.30;;;;;;5066144;28;20179;-62
2020/12/22 06:20:36;;;;;;;0.40;0.40;;;17.30;61.40;;;;;;5048539;28;20278;-61
2020/12/22 06:23:03;;;;;;;0.40;0.40;;;17.30;61.40;;;;;;5066439;28;20170;-61
2020/12/22 06:25:29;;;;;;;0.65;0.30;;;17.30;61.50;;;;;;5065828;28;20206;-61
2020/12/22 06:27:54;;;;;;;0.30;0.30;;;17.30;61.50;;;;;;5065632;28;21050;-60
2020/12/22 06:30:29;;;;;;;0.40;0.40;;;17.30;62.40;;;;;;5065653;28;20189;-61
2020/12/22 06:32:55;;;;;;;2.15;0.40;;;17.20;61.40;;;;;;5049227;28;20181;-58
2020/12/22 06:35:33;;;;;;;0.85;0.50;;;17.30;61.50;;;;;;5064721;28;20179;-62
2020/12/22 06:37:59;;;;;;;0.40;0.40;;;17.30;61.50;;;;;;5065515;28;20174;-61
2020/12/22 06:40:53;;;;;;;0.50;0.40;;;17.20;61.40;;;;;;5065387;28;20208;-62
2020/12/22 06:43:53;;;;;;;0.40;0.40;;;17.20;61.40;;;;;;5065536;28;20178;-62
2020/12/22 06:46:34;;;;;;;0.30;0.30;;;17.30;61.60;;;;;;5011111;28;20558;-62
2020/12/22 06:49:03;;;;;;;0.82;0.40;;;17.30;61.50;;;;;;5065714;28;20196;-62
2020/12/22 06:51:31;;;;;;;0.30;0.30;;;17.30;61.50;;;;;;5065467;28;20179;-62
2020/12/22 06:54:03;;;;;;;0.47;0.30;;;17.30;61.60;;;;;;5047933;28;20315;-61
2020/12/22 06:56:43;;;;;;;0.50;0.50;;;17.20;61.40;;;;;;5064929;28;20175;-62
2020/12/22 06:59:10;;;;;;;0.43;0.43;;;17.20;61.50;;;;;;5065177;28;20397;-62
2020/12/22 07:01:37;;;;;;;0.30;0.30;;;17.20;61.40;;;;;;5065095;28;20175;-62
2020/12/22 07:04:13;;;;;;;0.40;0.40;;;17.20;61.40;;;;;;5065170;28;21065;-62
2020/12/22 07:06:50;;;;;;;0.90;0.60;;;17.20;61.40;;;;;;5064994;28;20715;-62
2020/12/22 07:09:19;;;;;;;0.40;0.40;;;17.30;61.50;;;;;;5065188;28;20257;-62
2020/12/22 07:11:46;;;;;;;0.82;0.55;;;17.30;61.40;;;;;;5065041;28;20162;-61
2020/12/22 07:14:19;;;;;;;0.45;0.35;;;17.30;61.50;;;;;;5046960;28;20174;-61
2020/12/22 07:16:50;;;;;;;0.50;0.50;;;17.30;61.50;;;;;;5047215;28;20170;-62
2020/12/22 07:19:29;;;;;;;1.10;0.65;;;17.30;61.50;;;;;;5065220;28;20167;-62
2020/12/22 07:22:03;;;;;;;1.15;0.60;;;17.30;61.50;;;;;;5047548;28;20167;-62
2020/12/22 07:24:29;;;;;;;1.27;0.60;;;17.30;61.60;;;;;;5064645;28;20591;-61
2020/12/22 07:26:55;;;;;;;0.43;0.43;;;17.30;61.60;;;;;;5064635;28;20842;-61
2020/12/22 07:29:21;;;;;;;1.00;0.40;;;17.30;61.60;;;;;;5064744;28;20181;-60
2020/12/22 07:31:47;;;;;;;0.65;0.60;;;17.30;61.60;;;;;;5064480;28;20181;-61
2020/12/22 07:34:13;;;;;;;0.60;0.60;;;17.30;61.60;;;;;;5064206;28;20174;-61
2020/12/22 07:36:38;;;;;;;0.65;0.52;;;17.30;61.60;;;;;;5064509;28;20628;-61
2020/12/22 07:39:21;;;;;;;0.60;0.60;;;17.30;61.60;;;;;;5064807;28;20178;-62
2020/12/22 07:41:47;;;;;;;1.40;0.68;;;17.30;61.70;;;;;;5064787;28;20179;-62
2020/12/22 07:44:17;;;;;;;0.60;0.60;;;17.30;61.70;;;;;;5064816;28;20213;-63
2020/12/22 07:46:43;;;;;;;0.50;0.50;;;17.30;61.70;;;;;;5063932;28;20628;-62
2020/12/22 07:49:10;;;;;;;0.80;0.60;;;17.20;61.70;;;;;;5064280;28;20671;-62
2020/12/22 07:51:35;;;;;;;0.80;0.63;;;17.20;61.60;;;;;;5064182;28;20174;-62
2020/12/22 07:54:05;;;;;;;0.60;0.60;;;17.30;61.70;;;;;;5064226;28;20227;-62
2020/12/22 07:56:34;;;;;;;0.50;0.50;;;17.20;61.70;;;;;;5045975;28;20182;-62
2020/12/22 07:59:04;;;;;;;0.45;0.45;;;17.20;61.70;;;;;;5046847;28;20175;-62
2020/12/22 08:01:31;;;;;;;0.63;0.60;;;17.20;61.70;;;;;;5064194;28;20177;-62
2020/12/22 08:03:57;;;;;;;0.80;0.60;;;17.20;61.70;;;;;;5064199;28;20207;-62
2020/12/22 08:06:22;;;;;;;0.52;0.52;;;17.20;61.70;;;;;;5064393;28;20167;-61
2020/12/22 08:08:58;;;;;;;0.68;0.68;;;17.20;61.60;;;;;;5064189;28;20178;-61
2020/12/22 08:11:24;;;;;;;0.55;0.50;;;17.20;61.50;;;;;;5064281;28;20216;-61
2020/12/22 08:13:50;;;;;;;0.57;0.57;;;17.20;61.60;;;;;;5064325;28;20499;-63
2020/12/22 08:16:15;;;;;;;0.50;0.50;;;17.20;61.40;;;;;;5046109;28;20182;-62
2020/12/22 08:18:41;;;;;;;1.48;0.63;;;17.30;61.60;;;;;;5064018;28;20283;-62
2020/12/22 08:21:08;;;;;;;0.60;0.50;;;17.30;61.60;;;;;;5029902;28;20279;-61
2020/12/22 08:23:33;;;;;;;0.88;0.60;;;17.30;61.60;;;;;;5046384;28;20182;-62
2020/12/22 08:25:59;;;;;;;0.60;0.60;;;17.30;61.60;;;;;;5045953;28;20259;-59
2020/12/22 08:28:25;;;;;;;1.25;0.77;;;17.30;61.60;;;;;;5046070;28;20194;-61
2020/12/22 08:30:51;;;;;;;1.05;0.60;;;17.30;61.60;;;;;;5063481;28;20175;-60
2020/12/22 08:33:18;;;;;;;0.73;0.68;;;17.20;61.50;;;;;;5064159;28;20999;-62
2020/12/22 08:35:46;;;;;;;0.60;0.60;;;17.20;61.50;;;;;;5064113;28;20171;-61
2020/12/22 08:38:27;;;;;;;1.05;0.85;;;17.30;61.60;;;;;;5046301;28;20178;-62
2020/12/22 08:40:54;;;;;;;0.73;0.68;;;17.30;61.50;;;;;;5064013;28;20175;-62
2020/12/22 08:43:24;;;;;;;0.60;0.60;;;17.30;61.50;;;;;;5046274;28;20171;-62
2020/12/22 08:45:50;;;;;;;0.82;0.82;;;17.30;61.50;;;;;;5063666;28;20202;-62
2020/12/22 08:48:15;;;;;;;1.13;0.93;;;17.30;61.50;;;;;;5045932;28;20548;-63
2020/12/22 08:50:51;;;;;;;0.73;0.73;;;17.30;61.50;;;;;;5045344;28;20190;-62
2020/12/22 08:53:17;;;;;;;0.68;0.60;;;17.30;61.60;;;;;;5063632;28;20182;-62
2020/12/22 08:55:42;;;;;;;1.05;0.60;;;17.30;61.60;;;;;;5063577;28;20550;-63
2020/12/22 08:58:08;;;;;;;0.77;0.60;;;17.30;61.60;;;;;;5064260;28;20178;-62
2020/12/22 09:00:33;;;;;;;1.45;0.60;;;17.20;61.60;;;;;;5067616;28;20289;-61
2020/12/22 09:03:01;;;;;;;1.15;0.65;;;17.30;61.60;;;;;;5067534;28;20181;-62
2020/12/22 09:05:28;;;;;;;1.35;0.70;;;17.20;61.60;;;;;;5067391;28;20210;-62
2020/12/22 09:08:00;;;;;;;0.65;0.65;;;17.20;61.60;;;;;;5067295;28;20188;-62
2020/12/22 09:10:26;;;;;;;1.05;0.73;;;17.30;61.60;;;;;;5067178;28;20171;-66
2020/12/22 09:12:51;;;;;;;1.13;0.50;;;17.30;61.40;;;;;;5067041;28;20180;-63
2020/12/22 09:15:17;;;;;;;2.30;0.70;;;17.30;61.80;;;;;;5049457;28;20194;-62
2020/12/22 09:17:43;;;;;;;2.95;0.90;;;17.30;62.20;;;;;;5067194;28;20273;-63
2020/12/22 09:20:08;;;;;;;1.15;0.95;;;17.40;61.80;;;;;;5066730;28;20295;-61
2020/12/22 09:22:34;;;;;;;0.90;0.50;;;17.40;61.90;;;;;;5067059;28;20231;-62
2020/12/22 09:25:07;;;;;;;2.17;0.98;;;17.40;62.00;;;;;;5066768;28;21016;-62
2020/12/22 09:27:41;;;;;;;1.42;0.80;;;17.40;62.90;;;;;;5067319;28;20190;-63
2020/12/22 09:30:09;;;;;;;1.30;0.85;;;17.40;62.50;;;;;;5067302;28;20197;-66
2020/12/22 09:32:35;;;;;;;1.92;0.98;;;17.40;62.70;;;;;;5066853;28;20175;-65
2020/12/22 09:35:00;;;;;;;1.73;1.08;;;17.40;62.50;;;;;;5066696;28;20178;-63
2020/12/22 09:37:26;;;;;;;2.40;1.50;;;17.40;62.80;;;;;;5066957;28;20189;-63
2020/12/22 09:39:52;;;;;;;3.40;0.98;;;17.30;62.80;;;;;;5066534;28;20224;-64
2020/12/22 09:42:19;;;;;;;3.70;1.40;;;17.40;62.90;;;;;;5048986;28;20731;-63
2020/12/22 09:44:44;;;;;;;3.65;1.27;;;17.30;62.80;;;;;;5067073;28;20206;-68
2020/12/22 09:47:10;;;;;;;2.15;1.10;;;17.40;63.50;;;;;;5066556;28;20587;-67
2020/12/22 09:49:35;;;;;;;5.72;1.42;;;17.40;63.50;;;;;;5048855;28;20185;-65
2020/12/22 09:52:01;;;;;;;2.42;0.98;;;17.30;62.90;;;;;;5066802;28;20175;-65
2020/12/22 09:54:26;;;;;;;2.38;1.17;;;17.30;62.80;;;;;;5048372;28;20554;-65
2020/12/22 09:56:52;;;;;;;3.15;1.13;;;17.30;62.80;;;;;;5066514;28;20176;-64
2020/12/22 09:59:18;;;;;;;3.80;1.13;;;17.40;62.80;;;;;;5048176;28;20650;-66
2020/12/22 10:01:43;;;;;;;2.00;0.80;;;17.40;62.60;;;;;;5031978;28;20174;-65
2020/12/22 10:04:10;;;;;;;3.58;1.42;;;17.40;62.70;;;;;;5066553;28;20211;-62
2020/12/22 10:06:36;;;;;;;2.30;1.20;;;17.40;62.50;;;;;;5066508;28;20205;-65
2020/12/22 10:09:01;;;;;;;2.67;1.15;;;17.40;62.60;;;;;;5048149;28;20214;-65
2020/12/22 10:11:30;;;;;;;2.28;0.88;;;17.40;62.50;;;;;;5048412;28;20947;-64
2020/12/22 10:13:56;;;;;;;2.92;1.20;;;17.40;62.60;;;;;;5066226;28;20187;-66
2020/12/22 10:16:22;;;;;;;2.58;0.90;;;17.40;62.60;;;;;;5066085;28;20185;-66
2020/12/22 10:18:47;;;;;;;1.27;1.00;;;17.40;62.60;;;;;;5031841;28;20189;-66
2020/12/22 10:21:14;;;;;;;3.80;1.52;;;17.40;62.50;;;;;;5048390;28;20174;-65
2020/12/22 10:23:40;;;;;;;2.63;0.93;;;17.40;62.50;;;;;;5031737;28;20180;-65
2020/12/22 10:26:08;;;;;;;2.80;1.02;;;17.50;62.50;;;;;;5031855;28;20210;-65
2020/12/22 10:28:36;;;;;;;3.22;1.00;;;17.50;62.40;;;;;;5066148;28;20934;-64
2020/12/22 10:31:01;;;;;;;3.25;1.30;;;17.40;62.40;;;;;;5047987;28;20572;-66
2020/12/22 10:33:27;;;;;;;3.53;1.23;;;17.40;62.40;;;;;;5065514;28;20186;-64
2020/12/22 10:35:53;;;;;;;1.70;0.82;;;17.40;62.40;;;;;;5048015;28;20189;-65
2020/12/22 10:38:19;;;;;;;1.85;0.85;;;17.50;62.70;;;;;;5065698;28;20198;-65
2020/12/22 10:40:44;;;;;;;1.60;1.15;;;17.50;62.80;;;;;;5048066;28;20959;-65
2020/12/22 10:43:10;;;;;;;1.98;0.90;;;17.50;62.80;;;;;;5047540;28;20227;-66
2020/12/22 10:45:36;;;;;;;3.58;1.10;;;17.60;62.70;;;;;;5047537;28;20983;-65
2020/12/22 10:48:02;;;;;;;3.00;1.27;;;17.60;62.70;;;;;;5065197;28;20628;-66
2020/12/22 10:50:27;;;;;;;3.50;1.40;;;17.60;62.60;;;;;;5065403;28;20192;-66
2020/12/22 10:52:53;;;;;;;1.85;0.90;;;17.60;62.60;;;;;;5065365;28;20186;-65
2020/12/22 10:55:20;;;;;;;2.03;1.00;;;17.60;62.60;;;;;;5065122;28;20179;-66
2020/12/22 10:57:46;;;;;;;2.20;0.95;;;17.60;62.60;;;;;;5065449;28;20167;-65
2020/12/22 11:00:11;;;;;;;2.17;0.90;;;17.60;62.60;;;;;;5065137;28;20193;-63
2020/12/22 11:02:37;;;;;;;2.00;1.02;;;17.60;62.60;;;;;;5064946;28;20183;-63
2020/12/22 11:05:04;;;;;;;2.97;1.00;;;17.60;62.60;;;;;;5065001;28;20280;-64
2020/12/22 11:09:58;;;;;;;3.92;1.13;;;17.60;62.60;;;;;;5047201;28;20281;-65
2020/12/22 11:12:23;;;;;;;3.15;0.90;;;17.60;62.60;;;;;;5064648;28;20281;-64
2020/12/22 11:14:49;;;;;;;2.00;1.10;;;17.60;63.50;;;;;;5065045;28;20178;-64
2020/12/22 11:17:14;;;;;;;2.58;1.13;;;17.60;62.60;;;;;;5047187;28;20187;-65
2020/12/22 11:19:40;;;;;;;2.45;1.00;;;17.60;62.60;;;;;;5064679;28;20627;-66
2020/12/22 11:22:05;;;;;;;2.05;1.05;;;17.60;62.70;;;;;;5063741;28;20925;-64
2020/12/22 11:24:31;;;;;;;1.98;1.00;;;17.60;62.70;;;;;;5064570;28;21028;-64
2020/12/22 11:26:57;;;;;;;2.50;1.20;;;17.60;62.70;;;;;;5064524;28;20365;-65
2020/12/22 11:29:22;;;;;;;1.70;0.80;;;17.60;62.80;;;;;;5063854;28;20291;-65
2020/12/22 11:31:48;;;;;;;2.85;1.15;;;17.60;62.80;;;;;;5054860;28;20552;-65
2020/12/22 11:34:18;;;;;;;1.35;0.93;;;17.60;62.80;;;;;;5054697;28;20178;-67
2020/12/22 11:36:50;;;;;;;3.65;1.05;;;17.60;62.70;;;;;;5053908;28;20187;-68
2020/12/22 11:39:16;;;;;;;3.05;1.10;;;17.60;62.90;;;;;;5046623;28;20606;-65
2020/12/22 11:41:42;;;;;;;3.38;1.45;;;17.50;62.80;;;;;;5044552;28;20206;-67
2020/12/22 11:44:07;;;;;;;1.55;0.90;;;17.60;62.90;;;;;;5044296;28;20266;-66
2020/12/22 11:46:33;;;;;;;5.57;1.33;;;17.50;62.90;;;;;;5044181;28;20203;-67
2020/12/22 11:48:58;;;;;;;1.98;1.45;;;17.50;63.00;;;;;;5044391;28;20175;-65
2020/12/22 11:51:24;;;;;;;1.67;0.80;;;17.50;63.00;;;;;;5044080;28;20186;-68
2020/12/22 11:53:50;;;;;;;4.15;0.90;;;17.50;62.80;;;;;;5043861;28;20190;-68
2020/12/22 11:56:15;;;;;;;3.17;0.90;;;17.50;63.20;;;;;;5044157;28;20186;-66
2020/12/22 11:58:41;;;;;;;2.97;1.00;;;17.50;63.10;;;;;;5044037;28;20544;-67
2020/12/22 12:01:06;;;;;;;2.65;0.90;;;17.50;63.10;;;;;;5044007;28;20202;-62
2020/12/22 12:03:32;;;;;;;2.90;0.90;;;17.50;62.70;;;;;;5043661;28;20179;-66
2020/12/22 12:05:58;;;;;;;2.47;1.10;;;17.50;62.60;;;;;;5044242;28;20243;-67
2020/12/22 12:08:23;;;;;;;1.60;0.88;;;17.50;62.80;;;;;;5044015;28;20258;-67
2020/12/22 12:10:49;;;;;;;2.88;1.10;;;17.50;63.10;;;;;;5043891;28;20207;-63
2020/12/22 12:13:14;;;;;;;1.30;0.88;;;17.50;63.00;;;;;;5043684;28;20221;-62
2020/12/22 12:15:40;;;;;;;2.97;1.25;;;17.60;62.90;;;;;;5044166;28;20217;-62
2020/12/22 12:18:05;;;;;;;3.80;0.85;;;17.50;62.90;;;;;;5026228;28;20175;-63
2020/12/22 12:20:31;;;;;;;1.33;0.63;;;17.60;62.90;;;;;;5043842;28;20185;-62
2020/12/22 12:22:56;;;;;;;2.05;0.90;;;17.60;62.90;;;;;;5043807;28;20262;-62
2020/12/22 12:25:22;;;;;;;2.42;0.77;;;17.60;62.90;;;;;;5043915;28;20211;-61
2020/12/22 12:27:48;;;;;;;1.38;1.00;;;17.60;63.20;;;;;;5043942;28;20273;-62
2020/12/22 12:30:14;;;;;;;1.85;0.93;;;17.60;63.40;;;;;;5044100;28;20167;-61
2020/12/22 12:32:39;;;;;;;1.65;0.90;;;17.50;63.20;;;;;;5045472;28;20176;-61
2020/12/22 12:35:05;;;;;;;3.88;1.00;;;17.50;63.30;;;;;;5048139;28;20609;-62
2020/12/22 12:37:30;;;;;;;5.05;1.10;;;17.50;63.30;;;;;;5048064;28;20171;-61
2020/12/22 12:39:56;;;;;;;1.92;0.88;;;17.50;63.30;;;;;;5030169;28;20258;-62
2020/12/22 12:42:25;;;;;;;2.50;0.90;;;17.50;63.10;;;;;;5029570;28;20265;-62
2020/12/22 12:44:52;;;;;;;1.30;0.90;;;17.50;63.00;;;;;;5030113;28;20207;-63
2020/12/22 12:47:18;;;;;;;1.52;0.90;;;17.50;62.90;;;;;;5047786;28;20206;-62